sensor_id;sensor_type;location;lat;lon;timestamp;P1;durP1;ratioP1;P2;durP2;ratioP2
1995;SDS011;38556;47.068;15.408;2023-02-01T00:02:11;26.27;;;24.25;;
1995;SDS011;38556;47.068;15.408;2023-02-01T00:04:38;27.00;;;24.90;;
1995;SDS011;38556;47.068;15.408;2023-02-01T00:07:05;26.90;;;24.70;;
1995;SDS011;38556;47.068;15.408;2023-02-01T00:09:33;27.00;;;24.67;;
1995;SDS011;38556;47.068;15.408;2023-02-01T00:12:00;27.17;;;24.92;;
1995;SDS011;38556;47.068;15.408;2023-02-01T00:14:28;29.15;;;26.23;;
1995;SDS011;38556;47.068;15.408;2023-02-01T00:16:58;29.58;;;27.17;;
1995;SDS011;38556;47.068;15.408;2023-02-01T00:19:26;26.40;;;24.35;;
1995;SDS011;38556;47.068;15.408;2023-02-01T00:21:53;27.83;;;25.55;;
1995;SDS011;38556;47.068;15.408;2023-02-01T00:24:21;25.90;;;24.02;;
1995;SDS011;38556;47.068;15.408;2023-02-01T00:26:48;26.10;;;23.83;;
1995;SDS011;38556;47.068;15.408;2023-02-01T00:29:16;27.35;;;24.85;;
1995;SDS011;38556;47.068;15.408;2023-02-01T00:31:46;27.60;;;25.30;;
1995;SDS011;38556;47.068;15.408;2023-02-01T00:34:13;25.65;;;23.65;;
1995;SDS011;38556;47.068;15.408;2023-02-01T00:36:44;25.95;;;24.05;;
1995;SDS011;38556;47.068;15.408;2023-02-01T00:39:11;26.10;;;24.20;;
1995;SDS011;38556;47.068;15.408;2023-02-01T00:41:39;24.45;;;22.55;;
1995;SDS011;38556;47.068;15.408;2023-02-01T00:44:07;25.42;;;23.65;;
1995;SDS011;38556;47.068;15.408;2023-02-01T00:46:34;24.25;;;22.55;;
1995;SDS011;38556;47.068;15.408;2023-02-01T00:49:02;24.90;;;23.00;;
1995;SDS011;38556;47.068;15.408;2023-02-01T00:51:29;25.73;;;23.67;;
1995;SDS011;38556;47.068;15.408;2023-02-01T00:53:57;26.45;;;24.30;;
1995;SDS011;38556;47.068;15.408;2023-02-01T00:56:25;26.73;;;24.30;;
1995;SDS011;38556;47.068;15.408;2023-02-01T00:58:53;25.13;;;23.23;;
1995;SDS011;38556;47.068;15.408;2023-02-01T01:01:21;25.67;;;23.88;;
1995;SDS011;38556;47.068;15.408;2023-02-01T01:03:50;26.55;;;24.65;;
1995;SDS011;38556;47.068;15.408;2023-02-01T01:06:20;26.58;;;24.33;;
1995;SDS011;38556;47.068;15.408;2023-02-01T01:08:50;26.23;;;24.23;;
1995;SDS011;38556;47.068;15.408;2023-02-01T01:11:21;26.38;;;24.13;;
1995;SDS011;38556;47.068;15.408;2023-02-01T01:13:51;25.15;;;23.27;;
1995;SDS011;38556;47.068;15.408;2023-02-01T01:16:20;26.50;;;24.40;;
1995;SDS011;38556;47.068;15.408;2023-02-01T01:18:49;25.40;;;23.63;;
1995;SDS011;38556;47.068;15.408;2023-02-01T01:21:16;25.25;;;23.35;;
1995;SDS011;38556;47.068;15.408;2023-02-01T01:23:44;26.33;;;24.05;;
1995;SDS011;38556;47.068;15.408;2023-02-01T01:26:13;25.35;;;22.95;;
1995;SDS011;38556;47.068;15.408;2023-02-01T01:28:43;25.63;;;23.52;;
1995;SDS011;38556;47.068;15.408;2023-02-01T01:31:10;26.65;;;24.65;;
1995;SDS011;38556;47.068;15.408;2023-02-01T01:33:39;26.52;;;24.38;;
1995;SDS011;38556;47.068;15.408;2023-02-01T01:36:09;27.08;;;24.77;;
1995;SDS011;38556;47.068;15.408;2023-02-01T01:38:37;25.35;;;23.35;;
1995;SDS011;38556;47.068;15.408;2023-02-01T01:41:05;25.75;;;23.67;;
1995;SDS011;38556;47.068;15.408;2023-02-01T01:43:48;26.90;;;24.65;;
1995;SDS011;38556;47.068;15.408;2023-02-01T01:46:18;25.65;;;23.75;;
1995;SDS011;38556;47.068;15.408;2023-02-01T01:48:46;24.92;;;22.85;;
1995;SDS011;38556;47.068;15.408;2023-02-01T01:51:17;25.75;;;23.85;;
1995;SDS011;38556;47.068;15.408;2023-02-01T01:53:51;25.65;;;23.65;;
1995;SDS011;38556;47.068;15.408;2023-02-01T01:56:25;27.42;;;24.88;;
1995;SDS011;38556;47.068;15.408;2023-02-01T01:58:56;24.65;;;23.02;;
1995;SDS011;38556;47.068;15.408;2023-02-01T02:01:23;25.70;;;23.65;;
1995;SDS011;38556;47.068;15.408;2023-02-01T02:03:51;27.00;;;24.58;;
1995;SDS011;38556;47.068;15.408;2023-02-01T02:06:22;26.02;;;23.80;;
1995;SDS011;38556;47.068;15.408;2023-02-01T02:08:57;27.02;;;24.70;;
1995;SDS011;38556;47.068;15.408;2023-02-01T02:11:24;25.35;;;23.40;;
1995;SDS011;38556;47.068;15.408;2023-02-01T02:13:51;26.27;;;23.95;;
1995;SDS011;38556;47.068;15.408;2023-02-01T02:23:00;26.25;;;24.05;;
1995;SDS011;38556;47.068;15.408;2023-02-01T02:29:10;26.10;;;23.75;;
1995;SDS011;38556;47.068;15.408;2023-02-01T02:32:11;25.55;;;23.55;;
1995;SDS011;38556;47.068;15.408;2023-02-01T02:34:59;25.77;;;23.80;;
1995;SDS011;38556;47.068;15.408;2023-02-01T02:37:37;25.67;;;23.77;;
1995;SDS011;38556;47.068;15.408;2023-02-01T02:40:11;26.33;;;24.13;;
1995;SDS011;38556;47.068;15.408;2023-02-01T02:42:47;27.67;;;25.42;;
1995;SDS011;38556;47.068;15.408;2023-02-01T02:45:41;25.88;;;23.95;;
1995;SDS011;38556;47.068;15.408;2023-02-01T02:48:29;26.80;;;24.52;;
1995;SDS011;38556;47.068;15.408;2023-02-01T02:51:07;27.20;;;25.05;;
1995;SDS011;38556;47.068;15.408;2023-02-01T02:53:56;26.88;;;24.40;;
1995;SDS011;38556;47.068;15.408;2023-02-01T02:57:01;26.63;;;24.63;;
1995;SDS011;38556;47.068;15.408;2023-02-01T02:59:50;26.90;;;24.60;;
1995;SDS011;38556;47.068;15.408;2023-02-01T03:02:36;26.10;;;24.13;;
1995;SDS011;38556;47.068;15.408;2023-02-01T03:05:22;29.55;;;26.90;;
1995;SDS011;38556;47.068;15.408;2023-02-01T03:08:01;26.90;;;24.40;;
1995;SDS011;38556;47.068;15.408;2023-02-01T03:10:34;27.10;;;24.85;;
1995;SDS011;38556;47.068;15.408;2023-02-01T03:13:08;27.77;;;25.33;;
1995;SDS011;38556;47.068;15.408;2023-02-01T03:15:39;27.60;;;25.00;;
1995;SDS011;38556;47.068;15.408;2023-02-01T03:18:13;28.27;;;25.80;;
1995;SDS011;38556;47.068;15.408;2023-02-01T03:20:44;26.88;;;24.95;;
1995;SDS011;38556;47.068;15.408;2023-02-01T03:23:19;25.98;;;24.08;;
1995;SDS011;38556;47.068;15.408;2023-02-01T03:25:50;25.40;;;23.80;;
1995;SDS011;38556;47.068;15.408;2023-02-01T03:28:20;26.15;;;24.30;;
1995;SDS011;38556;47.068;15.408;2023-02-01T03:30:51;27.23;;;24.92;;
1995;SDS011;38556;47.068;15.408;2023-02-01T03:33:21;26.83;;;24.75;;
1995;SDS011;38556;47.068;15.408;2023-02-01T03:35:54;26.40;;;24.40;;
1995;SDS011;38556;47.068;15.408;2023-02-01T03:38:30;27.08;;;25.00;;
1995;SDS011;38556;47.068;15.408;2023-02-01T03:41:02;26.67;;;24.40;;
1995;SDS011;38556;47.068;15.408;2023-02-01T03:43:36;26.73;;;24.50;;
1995;SDS011;38556;47.068;15.408;2023-02-01T03:46:14;26.27;;;23.85;;
1995;SDS011;38556;47.068;15.408;2023-02-01T03:48:45;26.15;;;24.20;;
1995;SDS011;38556;47.068;15.408;2023-02-01T03:51:14;27.13;;;24.63;;
1995;SDS011;38556;47.068;15.408;2023-02-01T03:53:43;26.65;;;24.73;;
1995;SDS011;38556;47.068;15.408;2023-02-01T03:56:13;26.00;;;23.90;;
1995;SDS011;38556;47.068;15.408;2023-02-01T03:58:41;27.95;;;25.67;;
1995;SDS011;38556;47.068;15.408;2023-02-01T04:01:23;25.50;;;23.70;;
1995;SDS011;38556;47.068;15.408;2023-02-01T04:03:51;26.77;;;24.60;;
1995;SDS011;38556;47.068;15.408;2023-02-01T04:06:18;26.27;;;24.38;;
1995;SDS011;38556;47.068;15.408;2023-02-01T04:08:47;25.40;;;23.42;;
1995;SDS011;38556;47.068;15.408;2023-02-01T04:11:14;26.45;;;24.15;;
1995;SDS011;38556;47.068;15.408;2023-02-01T04:13:42;25.70;;;23.63;;
1995;SDS011;38556;47.068;15.408;2023-02-01T04:16:09;26.70;;;24.55;;
1995;SDS011;38556;47.068;15.408;2023-02-01T04:18:37;24.90;;;23.20;;
1995;SDS011;38556;47.068;15.408;2023-02-01T04:21:04;26.30;;;24.20;;
1995;SDS011;38556;47.068;15.408;2023-02-01T04:23:32;26.27;;;24.48;;
1995;SDS011;38556;47.068;15.408;2023-02-01T04:26:00;25.70;;;23.70;;
1995;SDS011;38556;47.068;15.408;2023-02-01T04:28:30;26.70;;;24.75;;
1995;SDS011;38556;47.068;15.408;2023-02-01T04:30:57;24.90;;;23.10;;
1995;SDS011;38556;47.068;15.408;2023-02-01T04:33:24;25.48;;;23.50;;
1995;SDS011;38556;47.068;15.408;2023-02-01T04:35:52;26.38;;;24.13;;
1995;SDS011;38556;47.068;15.408;2023-02-01T04:38:19;25.13;;;23.40;;
1995;SDS011;38556;47.068;15.408;2023-02-01T04:40:47;25.38;;;23.27;;
1995;SDS011;38556;47.068;15.408;2023-02-01T04:43:16;25.15;;;23.35;;
1995;SDS011;38556;47.068;15.408;2023-02-01T04:45:46;26.58;;;24.17;;
1995;SDS011;38556;47.068;15.408;2023-02-01T04:48:14;25.25;;;23.35;;
1995;SDS011;38556;47.068;15.408;2023-02-01T04:50:42;24.45;;;22.55;;
1995;SDS011;38556;47.068;15.408;2023-02-01T04:53:12;24.20;;;22.50;;
1995;SDS011;38556;47.068;15.408;2023-02-01T04:55:41;24.67;;;22.88;;
1995;SDS011;38556;47.068;15.408;2023-02-01T04:58:08;24.20;;;21.98;;
1995;SDS011;38556;47.068;15.408;2023-02-01T05:00:37;25.88;;;23.98;;
1995;SDS011;38556;47.068;15.408;2023-02-01T05:03:05;24.65;;;22.98;;
1995;SDS011;38556;47.068;15.408;2023-02-01T05:05:32;24.52;;;22.77;;
1995;SDS011;38556;47.068;15.408;2023-02-01T05:07:59;23.75;;;22.08;;
1995;SDS011;38556;47.068;15.408;2023-02-01T05:10:26;24.52;;;22.83;;
1995;SDS011;38556;47.068;15.408;2023-02-01T05:12:54;24.40;;;22.55;;
1995;SDS011;38556;47.068;15.408;2023-02-01T05:15:41;24.40;;;22.58;;
1995;SDS011;38556;47.068;15.408;2023-02-01T05:18:08;25.65;;;23.90;;
1995;SDS011;38556;47.068;15.408;2023-02-01T05:20:35;25.00;;;23.38;;
1995;SDS011;38556;47.068;15.408;2023-02-01T05:23:02;25.25;;;23.25;;
1995;SDS011;38556;47.068;15.408;2023-02-01T05:25:30;25.73;;;23.85;;
1995;SDS011;38556;47.068;15.408;2023-02-01T05:27:58;25.77;;;23.77;;
1995;SDS011;38556;47.068;15.408;2023-02-01T05:30:25;23.90;;;22.15;;
1995;SDS011;38556;47.068;15.408;2023-02-01T05:32:54;25.00;;;23.00;;
1995;SDS011;38556;47.068;15.408;2023-02-01T05:35:21;24.98;;;23.15;;
1995;SDS011;38556;47.068;15.408;2023-02-01T05:37:49;25.65;;;23.33;;
1995;SDS011;38556;47.068;15.408;2023-02-01T05:40:16;24.40;;;22.80;;
1995;SDS011;38556;47.068;15.408;2023-02-01T05:42:44;26.25;;;24.25;;
1995;SDS011;38556;47.068;15.408;2023-02-01T05:45:11;24.05;;;22.50;;
1995;SDS011;38556;47.068;15.408;2023-02-01T05:47:38;26.35;;;24.17;;
1995;SDS011;38556;47.068;15.408;2023-02-01T05:50:08;26.05;;;24.15;;
1995;SDS011;38556;47.068;15.408;2023-02-01T05:52:35;25.33;;;23.55;;
1995;SDS011;38556;47.068;15.408;2023-02-01T05:55:02;25.05;;;22.90;;
1995;SDS011;38556;47.068;15.408;2023-02-01T05:57:30;24.77;;;22.85;;
1995;SDS011;38556;47.068;15.408;2023-02-01T05:59:57;24.70;;;23.00;;
1995;SDS011;38556;47.068;15.408;2023-02-01T06:02:25;24.38;;;22.65;;
1995;SDS011;38556;47.068;15.408;2023-02-01T06:04:52;24.20;;;22.48;;
1995;SDS011;38556;47.068;15.408;2023-02-01T06:07:21;26.75;;;24.63;;
1995;SDS011;38556;47.068;15.408;2023-02-01T06:09:48;26.20;;;24.20;;
1995;SDS011;38556;47.068;15.408;2023-02-01T06:12:16;25.33;;;23.25;;
1995;SDS011;38556;47.068;15.408;2023-02-01T06:14:43;25.95;;;23.98;;
1995;SDS011;38556;47.068;15.408;2023-02-01T06:17:10;25.38;;;23.48;;
1995;SDS011;38556;47.068;15.408;2023-02-01T06:19:38;26.02;;;23.98;;
1995;SDS011;38556;47.068;15.408;2023-02-01T06:22:06;23.95;;;21.98;;
1995;SDS011;38556;47.068;15.408;2023-02-01T06:24:34;25.88;;;23.48;;
1995;SDS011;38556;47.068;15.408;2023-02-01T06:27:02;25.25;;;23.38;;
1995;SDS011;38556;47.068;15.408;2023-02-01T06:29:29;25.25;;;23.25;;
1995;SDS011;38556;47.068;15.408;2023-02-01T06:31:57;24.02;;;21.85;;
1995;SDS011;38556;47.068;15.408;2023-02-01T06:34:24;26.05;;;24.10;;
1995;SDS011;38556;47.068;15.408;2023-02-01T06:36:51;27.23;;;24.20;;
1995;SDS011;38556;47.068;15.408;2023-02-01T06:39:19;25.58;;;23.58;;
1995;SDS011;38556;47.068;15.408;2023-02-01T06:41:47;26.95;;;24.75;;
1995;SDS011;38556;47.068;15.408;2023-02-01T06:44:16;26.65;;;24.02;;
1995;SDS011;38556;47.068;15.408;2023-02-01T06:46:43;26.85;;;24.73;;
1995;SDS011;38556;47.068;15.408;2023-02-01T06:49:10;24.10;;;22.40;;
1995;SDS011;38556;47.068;15.408;2023-02-01T06:51:38;24.98;;;23.15;;
1995;SDS011;38556;47.068;15.408;2023-02-01T06:54:05;27.20;;;24.90;;
1995;SDS011;38556;47.068;15.408;2023-02-01T06:56:32;28.63;;;26.25;;
1995;SDS011;38556;47.068;15.408;2023-02-01T06:59:04;26.77;;;24.70;;
1995;SDS011;38556;47.068;15.408;2023-02-01T07:01:31;25.00;;;22.92;;
1995;SDS011;38556;47.068;15.408;2023-02-01T07:03:59;25.38;;;23.77;;
1995;SDS011;38556;47.068;15.408;2023-02-01T07:06:26;25.35;;;23.52;;
1995;SDS011;38556;47.068;15.408;2023-02-01T07:08:54;25.38;;;23.58;;
1995;SDS011;38556;47.068;15.408;2023-02-01T07:11:22;24.25;;;22.65;;
1995;SDS011;38556;47.068;15.408;2023-02-01T07:13:49;22.90;;;21.02;;
1995;SDS011;38556;47.068;15.408;2023-02-01T07:16:18;24.23;;;22.30;;
1995;SDS011;38556;47.068;15.408;2023-02-01T07:18:46;25.30;;;23.30;;
1995;SDS011;38556;47.068;15.408;2023-02-01T07:21:15;23.58;;;21.75;;
1995;SDS011;38556;47.068;15.408;2023-02-01T07:23:43;23.83;;;22.27;;
1995;SDS011;38556;47.068;15.408;2023-02-01T07:26:10;23.35;;;21.55;;
1995;SDS011;38556;47.068;15.408;2023-02-01T07:28:39;22.20;;;20.80;;
1995;SDS011;38556;47.068;15.408;2023-02-01T07:31:07;23.17;;;21.58;;
1995;SDS011;38556;47.068;15.408;2023-02-01T07:33:38;24.58;;;22.50;;
1995;SDS011;38556;47.068;15.408;2023-02-01T07:36:06;24.63;;;22.70;;
1995;SDS011;38556;47.068;15.408;2023-02-01T07:38:37;25.58;;;23.50;;
1995;SDS011;38556;47.068;15.408;2023-02-01T07:41:05;24.67;;;22.63;;
1995;SDS011;38556;47.068;15.408;2023-02-01T07:43:33;25.02;;;22.90;;
1995;SDS011;38556;47.068;15.408;2023-02-01T07:46:01;23.73;;;21.38;;
1995;SDS011;38556;47.068;15.408;2023-02-01T07:48:29;23.88;;;22.33;;
1995;SDS011;38556;47.068;15.408;2023-02-01T07:51:01;24.27;;;22.27;;
1995;SDS011;38556;47.068;15.408;2023-02-01T07:53:31;25.83;;;23.55;;
1995;SDS011;38556;47.068;15.408;2023-02-01T07:55:59;27.33;;;24.42;;
1995;SDS011;38556;47.068;15.408;2023-02-01T07:58:26;23.65;;;21.95;;
1995;SDS011;38556;47.068;15.408;2023-02-01T08:00:54;26.02;;;23.83;;
1995;SDS011;38556;47.068;15.408;2023-02-01T08:03:39;27.17;;;24.80;;
1995;SDS011;38556;47.068;15.408;2023-02-01T08:06:08;25.02;;;23.20;;
1995;SDS011;38556;47.068;15.408;2023-02-01T08:08:36;31.83;;;28.90;;
1995;SDS011;38556;47.068;15.408;2023-02-01T08:11:04;25.65;;;23.65;;
1995;SDS011;38556;47.068;15.408;2023-02-01T08:13:32;24.90;;;22.95;;
1995;SDS011;38556;47.068;15.408;2023-02-01T08:16:01;23.80;;;22.10;;
1995;SDS011;38556;47.068;15.408;2023-02-01T08:18:30;23.00;;;21.27;;
1995;SDS011;38556;47.068;15.408;2023-02-01T08:20:57;24.10;;;21.80;;
1995;SDS011;38556;47.068;15.408;2023-02-01T08:23:30;25.80;;;23.42;;
1995;SDS011;38556;47.068;15.408;2023-02-01T08:26:04;26.45;;;24.17;;
1995;SDS011;38556;47.068;15.408;2023-02-01T08:28:33;26.42;;;24.20;;
1995;SDS011;38556;47.068;15.408;2023-02-01T08:31:03;27.88;;;25.48;;
1995;SDS011;38556;47.068;15.408;2023-02-01T08:33:32;29.73;;;26.80;;
1995;SDS011;38556;47.068;15.408;2023-02-01T08:36:00;26.48;;;24.35;;
1995;SDS011;38556;47.068;15.408;2023-02-01T08:38:28;26.60;;;24.10;;
1995;SDS011;38556;47.068;15.408;2023-02-01T08:40:57;24.83;;;23.02;;
1995;SDS011;38556;47.068;15.408;2023-02-01T08:43:30;26.70;;;24.17;;
1995;SDS011;38556;47.068;15.408;2023-02-01T08:45:57;33.85;;;30.95;;
1995;SDS011;38556;47.068;15.408;2023-02-01T08:48:25;28.63;;;26.38;;
1995;SDS011;38556;47.068;15.408;2023-02-01T08:50:52;31.48;;;28.48;;
1995;SDS011;38556;47.068;15.408;2023-02-01T08:53:20;31.75;;;27.67;;
1995;SDS011;38556;47.068;15.408;2023-02-01T08:55:48;34.33;;;28.92;;
1995;SDS011;38556;47.068;15.408;2023-02-01T08:58:16;31.38;;;28.73;;
1995;SDS011;38556;47.068;15.408;2023-02-01T09:00:43;29.60;;;26.95;;
1995;SDS011;38556;47.068;15.408;2023-02-01T09:03:11;28.92;;;26.58;;
1995;SDS011;38556;47.068;15.408;2023-02-01T09:05:38;27.70;;;25.80;;
1995;SDS011;38556;47.068;15.408;2023-02-01T09:08:06;27.75;;;25.65;;
1995;SDS011;38556;47.068;15.408;2023-02-01T09:10:33;29.45;;;26.90;;
1995;SDS011;38556;47.068;15.408;2023-02-01T09:13:03;29.38;;;26.75;;
1995;SDS011;38556;47.068;15.408;2023-02-01T09:15:30;26.55;;;24.60;;
1995;SDS011;38556;47.068;15.408;2023-02-01T09:17:58;26.70;;;24.70;;
1995;SDS011;38556;47.068;15.408;2023-02-01T09:20:25;25.08;;;23.20;;
1995;SDS011;38556;47.068;15.408;2023-02-01T09:22:54;28.35;;;26.05;;
1995;SDS011;38556;47.068;15.408;2023-02-01T09:25:22;26.15;;;24.15;;
1995;SDS011;38556;47.068;15.408;2023-02-01T09:27:49;26.13;;;23.92;;
1995;SDS011;38556;47.068;15.408;2023-02-01T09:30:18;26.27;;;23.73;;
1995;SDS011;38556;47.068;15.408;2023-02-01T09:32:46;24.10;;;22.35;;
1995;SDS011;38556;47.068;15.408;2023-02-01T09:35:13;26.40;;;24.52;;
1995;SDS011;38556;47.068;15.408;2023-02-01T09:37:40;25.60;;;23.50;;
1995;SDS011;38556;47.068;15.408;2023-02-01T09:40:10;26.88;;;24.48;;
1995;SDS011;38556;47.068;15.408;2023-02-01T09:42:51;23.98;;;22.27;;
1995;SDS011;38556;47.068;15.408;2023-02-01T09:45:44;25.10;;;23.58;;
1995;SDS011;38556;47.068;15.408;2023-02-01T09:48:23;24.83;;;22.80;;
1995;SDS011;38556;47.068;15.408;2023-02-01T09:50:55;24.60;;;22.65;;
1995;SDS011;38556;47.068;15.408;2023-02-01T09:53:25;24.92;;;23.05;;
1995;SDS011;38556;47.068;15.408;2023-02-01T09:55:55;26.02;;;24.17;;
1995;SDS011;38556;47.068;15.408;2023-02-01T09:58:27;27.05;;;25.10;;
1995;SDS011;38556;47.068;15.408;2023-02-01T10:01:01;26.27;;;24.48;;
1995;SDS011;38556;47.068;15.408;2023-02-01T10:03:32;24.50;;;23.00;;
1995;SDS011;38556;47.068;15.408;2023-02-01T10:06:07;25.08;;;23.23;;
1995;SDS011;38556;47.068;15.408;2023-02-01T10:08:55;24.00;;;22.40;;
1995;SDS011;38556;47.068;15.408;2023-02-01T10:11:41;25.63;;;23.73;;
1995;SDS011;38556;47.068;15.408;2023-02-01T10:14:20;24.15;;;22.70;;
1995;SDS011;38556;47.068;15.408;2023-02-01T10:17:10;27.27;;;24.85;;
1995;SDS011;38556;47.068;15.408;2023-02-01T10:19:48;27.85;;;25.65;;
1995;SDS011;38556;47.068;15.408;2023-02-01T10:22:26;28.88;;;26.38;;
1995;SDS011;38556;47.068;15.408;2023-02-01T10:25:04;25.58;;;23.88;;
1995;SDS011;38556;47.068;15.408;2023-02-01T10:27:40;25.55;;;23.45;;
1995;SDS011;38556;47.068;15.408;2023-02-01T10:30:14;26.63;;;24.55;;
1995;SDS011;38556;47.068;15.408;2023-02-01T10:32:48;28.02;;;25.42;;
1995;SDS011;38556;47.068;15.408;2023-02-01T10:35:22;28.40;;;25.80;;
1995;SDS011;38556;47.068;15.408;2023-02-01T10:37:53;29.27;;;27.00;;
1995;SDS011;38556;47.068;15.408;2023-02-01T10:40:22;29.13;;;26.08;;
1995;SDS011;38556;47.068;15.408;2023-02-01T10:42:52;30.00;;;27.48;;
1995;SDS011;38556;47.068;15.408;2023-02-01T10:45:21;27.15;;;24.90;;
1995;SDS011;38556;47.068;15.408;2023-02-01T10:47:53;43.15;;;33.63;;
1995;SDS011;38556;47.068;15.408;2023-02-01T10:50:26;25.33;;;23.10;;
1995;SDS011;38556;47.068;15.408;2023-02-01T10:53:03;25.65;;;23.77;;
1995;SDS011;38556;47.068;15.408;2023-02-01T10:55:34;25.15;;;23.15;;
1995;SDS011;38556;47.068;15.408;2023-02-01T10:58:05;26.10;;;23.92;;
1995;SDS011;38556;47.068;15.408;2023-02-01T11:00:44;26.73;;;23.85;;
1995;SDS011;38556;47.068;15.408;2023-02-01T11:06:10;23.02;;;21.63;;
1995;SDS011;38556;47.068;15.408;2023-02-01T11:08:43;23.20;;;21.13;;
1995;SDS011;38556;47.068;15.408;2023-02-01T11:11:14;21.63;;;20.00;;
1995;SDS011;38556;47.068;15.408;2023-02-01T11:13:41;23.10;;;21.00;;
1995;SDS011;38556;47.068;15.408;2023-02-01T11:16:11;21.80;;;20.05;;
1995;SDS011;38556;47.068;15.408;2023-02-01T11:18:41;22.25;;;20.55;;
1995;SDS011;38556;47.068;15.408;2023-02-01T11:21:09;21.48;;;20.17;;
1995;SDS011;38556;47.068;15.408;2023-02-01T11:23:41;23.23;;;21.58;;
1995;SDS011;38556;47.068;15.408;2023-02-01T11:26:13;23.95;;;22.20;;
1995;SDS011;38556;47.068;15.408;2023-02-01T11:28:47;23.35;;;21.42;;
1995;SDS011;38556;47.068;15.408;2023-02-01T11:31:20;23.52;;;21.63;;
1995;SDS011;38556;47.068;15.408;2023-02-01T11:33:50;23.20;;;21.45;;
1995;SDS011;38556;47.068;15.408;2023-02-01T11:36:21;22.50;;;21.15;;
1995;SDS011;38556;47.068;15.408;2023-02-01T11:38:52;23.85;;;22.45;;
1995;SDS011;38556;47.068;15.408;2023-02-01T11:41:34;23.95;;;22.45;;
1995;SDS011;38556;47.068;15.408;2023-02-01T11:44:15;22.80;;;21.17;;
1995;SDS011;38556;47.068;15.408;2023-02-01T11:46:47;23.08;;;21.55;;
1995;SDS011;38556;47.068;15.408;2023-02-01T11:49:20;22.25;;;20.63;;
1995;SDS011;38556;47.068;15.408;2023-02-01T11:51:54;20.77;;;19.25;;
1995;SDS011;38556;47.068;15.408;2023-02-01T11:54:34;18.83;;;17.90;;
1995;SDS011;38556;47.068;15.408;2023-02-01T11:57:18;19.90;;;19.00;;
1995;SDS011;38556;47.068;15.408;2023-02-01T12:00:02;20.27;;;19.40;;
1995;SDS011;38556;47.068;15.408;2023-02-01T12:05:44;20.45;;;19.65;;
1995;SDS011;38556;47.068;15.408;2023-02-01T12:08:26;19.60;;;18.80;;
1995;SDS011;38556;47.068;15.408;2023-02-01T12:11:23;19.60;;;18.55;;
1995;SDS011;38556;47.068;15.408;2023-02-01T12:14:10;20.02;;;19.23;;
1995;SDS011;38556;47.068;15.408;2023-02-01T12:16:51;20.30;;;19.40;;
1995;SDS011;38556;47.068;15.408;2023-02-01T12:19:35;21.10;;;20.20;;
1995;SDS011;38556;47.068;15.408;2023-02-01T12:22:18;20.40;;;19.50;;
1995;SDS011;38556;47.068;15.408;2023-02-01T12:25:04;22.42;;;21.52;;
1995;SDS011;38556;47.068;15.408;2023-02-01T12:33:58;21.73;;;20.92;;
1995;SDS011;38556;47.068;15.408;2023-02-01T12:36:40;22.60;;;21.60;;
1995;SDS011;38556;47.068;15.408;2023-02-01T12:39:20;22.88;;;21.98;;
1995;SDS011;38556;47.068;15.408;2023-02-01T12:41:53;23.02;;;22.13;;
1995;SDS011;38556;47.068;15.408;2023-02-01T12:44:31;22.25;;;21.35;;
1995;SDS011;38556;47.068;15.408;2023-02-01T12:47:05;21.35;;;20.23;;
1995;SDS011;38556;47.068;15.408;2023-02-01T12:49:41;20.65;;;19.75;;
1995;SDS011;38556;47.068;15.408;2023-02-01T12:52:13;20.10;;;19.20;;
1995;SDS011;38556;47.068;15.408;2023-02-01T12:54:47;21.95;;;20.88;;
1995;SDS011;38556;47.068;15.408;2023-02-01T12:57:22;20.42;;;19.63;;
1995;SDS011;38556;47.068;15.408;2023-02-01T12:59:56;19.67;;;18.77;;
1995;SDS011;38556;47.068;15.408;2023-02-01T13:02:30;18.50;;;17.80;;
1995;SDS011;38556;47.068;15.408;2023-02-01T13:05:18;19.45;;;18.65;;
1995;SDS011;38556;47.068;15.408;2023-02-01T13:07:48;19.45;;;18.65;;
1995;SDS011;38556;47.068;15.408;2023-02-01T13:10:24;17.77;;;17.08;;
1995;SDS011;38556;47.068;15.408;2023-02-01T13:12:59;18.83;;;18.00;;
1995;SDS011;38556;47.068;15.408;2023-02-01T13:15:36;18.63;;;17.92;;
1995;SDS011;38556;47.068;15.408;2023-02-01T13:18:10;19.83;;;19.02;;
1995;SDS011;38556;47.068;15.408;2023-02-01T13:20:46;18.88;;;18.08;;
1995;SDS011;38556;47.068;15.408;2023-02-01T13:23:22;19.30;;;18.50;;
1995;SDS011;38556;47.068;15.408;2023-02-01T13:25:54;19.77;;;18.98;;
1995;SDS011;38556;47.068;15.408;2023-02-01T13:28:24;19.13;;;18.42;;
1995;SDS011;38556;47.068;15.408;2023-02-01T13:31:05;18.30;;;17.60;;
1995;SDS011;38556;47.068;15.408;2023-02-01T13:33:59;18.90;;;18.10;;
1995;SDS011;38556;47.068;15.408;2023-02-01T13:36:56;19.73;;;18.92;;
1995;SDS011;38556;47.068;15.408;2023-02-01T13:39:39;19.83;;;18.85;;
1995;SDS011;38556;47.068;15.408;2023-02-01T13:42:18;19.17;;;18.45;;
1995;SDS011;38556;47.068;15.408;2023-02-01T13:44:48;19.55;;;18.75;;
1995;SDS011;38556;47.068;15.408;2023-02-01T13:47:21;19.55;;;18.75;;
1995;SDS011;38556;47.068;15.408;2023-02-01T13:49:52;19.25;;;18.55;;
1995;SDS011;38556;47.068;15.408;2023-02-01T13:52:25;18.85;;;18.05;;
1995;SDS011;38556;47.068;15.408;2023-02-01T13:55:03;19.40;;;18.60;;
1995;SDS011;38556;47.068;15.408;2023-02-01T13:57:43;19.30;;;18.23;;
1995;SDS011;38556;47.068;15.408;2023-02-01T14:00:24;19.40;;;18.52;;
1995;SDS011;38556;47.068;15.408;2023-02-01T14:03:02;19.42;;;18.63;;
1995;SDS011;38556;47.068;15.408;2023-02-01T14:08:45;19.73;;;18.92;;
1995;SDS011;38556;47.068;15.408;2023-02-01T14:11:32;18.20;;;17.50;;
1995;SDS011;38556;47.068;15.408;2023-02-01T14:23:09;18.80;;;18.00;;
1995;SDS011;38556;47.068;15.408;2023-02-01T14:25:40;19.50;;;18.70;;
1995;SDS011;38556;47.068;15.408;2023-02-01T14:28:12;19.38;;;18.58;;
1995;SDS011;38556;47.068;15.408;2023-02-01T14:30:49;18.55;;;17.70;;
1995;SDS011;38556;47.068;15.408;2023-02-01T14:33:22;19.15;;;18.35;;
1995;SDS011;38556;47.068;15.408;2023-02-01T14:36:02;20.15;;;19.35;;
1995;SDS011;38556;47.068;15.408;2023-02-01T14:38:33;18.95;;;18.15;;
1995;SDS011;38556;47.068;15.408;2023-02-01T14:44:13;18.98;;;18.17;;
1995;SDS011;38556;47.068;15.408;2023-02-01T14:47:08;18.88;;;18.10;;
1995;SDS011;38556;47.068;15.408;2023-02-01T14:49:55;17.60;;;16.80;;
1995;SDS011;38556;47.068;15.408;2023-02-01T14:52:29;18.60;;;17.80;;
1995;SDS011;38556;47.068;15.408;2023-02-01T14:55:02;19.48;;;18.38;;
1995;SDS011;38556;47.068;15.408;2023-02-01T14:57:33;18.90;;;18.20;;
1995;SDS011;38556;47.068;15.408;2023-02-01T15:00:11;19.08;;;18.08;;
1995;SDS011;38556;47.068;15.408;2023-02-01T15:02:45;18.52;;;17.83;;
1995;SDS011;38556;47.068;15.408;2023-02-01T15:05:27;18.55;;;17.67;;
1995;SDS011;38556;47.068;15.408;2023-02-01T15:07:58;18.00;;;17.30;;
1995;SDS011;38556;47.068;15.408;2023-02-01T15:10:32;17.40;;;16.80;;
1995;SDS011;38556;47.068;15.408;2023-02-01T15:13:10;18.23;;;17.52;;
1995;SDS011;38556;47.068;15.408;2023-02-01T15:16:05;17.83;;;17.13;;
1995;SDS011;38556;47.068;15.408;2023-02-01T15:18:37;18.85;;;18.05;;
1995;SDS011;38556;47.068;15.408;2023-02-01T15:21:13;19.15;;;18.25;;
1995;SDS011;38556;47.068;15.408;2023-02-01T15:23:44;19.58;;;18.60;;
1995;SDS011;38556;47.068;15.408;2023-02-01T15:26:26;20.17;;;19.25;;
1995;SDS011;38556;47.068;15.408;2023-02-01T15:28:56;19.23;;;18.52;;